Ear Falls, Canada
Current Conditions -  °F | °C
As of 2:35 PM on Tuesday 27 Jan 2015 (Local Time) from CYRL Reporting Station
Light Snow Light Snow  
Wind Chill: 17°   Ceiling: 1800
Heat Index: 25°   Visibility: 12mi
Dew Point: 23°   Wind: 7mph
Humidity: 93%   Direction: 170°S
Pressure: 29.97"   Gusts: NA
Location:  50.64°N, 93.23°W
Report Text: CYRL 272035Z 17006KT 12SM -SN SCT007 OVC018 M04/M05 A2997 RMK SC4SC4 BR SLP174
Loading
Personal Weather Stations






























Interactive Weather Map New forecast layout! Learn more

10-Day Weather Forecast

Advertisements
Track Severe Weather on mobile